TimePST,TemperatureF,Dew PointF,Humidity,Sea Level PressureIn,VisibilityMPH,Wind Direction,Wind SpeedMPH,Gust SpeedMPH,PrecipitationIn,Events,Conditions,WindDirDegrees,DateUTC
12:56 AM,51.1,42.1,71,30.24,10.0,Calm,Calm,-,N/A,,Clear,0,2013-02-16 08:56:00
1:56 AM,46.9,39.9,77,30.25,10.0,Calm,Calm,-,N/A,,Clear,0,2013-02-16 09:56:00
2:56 AM,46.9,39.9,77,30.22,10.0,Calm,Calm,-,N/A,,Clear,0,2013-02-16 10:56:00
3:56 AM,48.0,39.9,74,30.22,10.0,Calm,Calm,-,N/A,,Clear,0,2013-02-16 11:56:00
4:56 AM,48.0,41.0,77,30.21,10.0,Calm,Calm,-,N/A,,Clear,0,2013-02-16 12:56:00
5:56 AM,46.0,42.1,86,30.21,10.0,Calm,Calm,-,N/A,,Clear,0,2013-02-16 13:56:00
6:56 AM,46.0,41.0,83,30.21,10.0,Calm,Calm,-,N/A,,Clear,0,2013-02-16 14:56:00
7:56 AM,46.9,41.0,80,30.22,10.0,Calm,Calm,-,N/A,,Clear,0,2013-02-16 15:56:00
8:56 AM,51.1,45.0,80,30.22,10.0,Calm,Calm,-,N/A,,Clear,0,2013-02-16 16:56:00
9:56 AM,55.9,46.9,72,30.22,10.0,Calm,Calm,-,N/A,,Clear,0,2013-02-16 17:56:00
10:56 AM,59.0,46.9,64,30.21,10.0,North,3.5,-,N/A,,Clear,360,2013-02-16 18:56:00
11:56 AM,61.0,46.0,58,30.19,10.0,Calm,Calm,-,N/A,,Clear,0,2013-02-16 19:56:00
12:56 PM,64.9,45.0,48,30.15,10.0,NNW,4.6,-,N/A,,Clear,340,2013-02-16 20:56:00
1:56 PM,66.0,46.9,50,30.12,10.0,WNW,5.8,-,N/A,,Clear,300,2013-02-16 21:56:00
2:56 PM,66.9,48.9,52,30.10,9.0,NW,9.2,26.5,N/A,,Clear,320,2013-02-16 22:56:00
3:56 PM,66.9,48.0,51,30.09,9.0,North,9.2,-,N/A,,Clear,350,2013-02-16 23:56:00
4:56 PM,64.9,46.9,52,30.08,10.0,NNW,8.1,-,N/A,,Clear,340,2013-02-17 00:56:00
5:56 PM,60.1,48.0,64,30.09,10.0,NNW,5.8,-,N/A,,Clear,330,2013-02-17 01:56:00
6:56 PM,55.0,50.0,83,30.09,10.0,North,3.5,-,N/A,,Clear,360,2013-02-17 02:56:00
7:56 PM,55.0,48.0,77,30.09,10.0,North,4.6,-,N/A,,Clear,360,2013-02-17 03:56:00
8:56 PM,52.0,48.0,86,30.10,10.0,NNE,4.6,-,N/A,,Clear,20,2013-02-17 04:56:00
9:56 PM,51.1,48.0,89,30.10,10.0,North,8.1,-,N/A,,Clear,360,2013-02-17 05:56:00
10:56 PM,48.9,46.0,90,30.10,10.0,North,4.6,-,N/A,,Clear,350,2013-02-17 06:56:00
11:56 PM,48.9,46.9,93,30.09,10.0,NNE,4.6,-,N/A,,Clear,20,2013-02-17 07:56:00